Weather History for Ft Riley, KS

Change the Weather History Date:

Thursday, April 18, 2013

  Actual Average (KMHK) Record (KMHK)
Temperature  
Mean Temperature 36 °F 55 °F  
Max Temperature 39 °F 68 °F 89 °F (2002)
Min Temperature 32 °F 42 °F 27 °F (2001)
Degree Days  
Heating Degree Days 28 11  
Month to date heating degree days 240  
Since 1 July heating degree days 5076  
Cooling Degree Days 0 1  
Month to date cooling degree days 7  
Year to date cooling degree days 9  
Moisture  
Dew Point 33 °F    
Average Humidity 88    
Maximum Humidity 100    
Minimum Humidity 60    
Precipitation  
Precipitation 0.20 in 0.10 in 0.32 in (2003)
Month to date precipitation 1.37  
Year to date precipitation 5.29  
Sea Level Pressure  
Sea Level Pressure 29.85 in    
Wind  
Wind Speed 13 mph (NW)    
Max Wind Speed 21 mph    
Max Gust Speed 33 mph    
Visibility 9 miles    
Events Rain , Snow    
T = Trace of Precipitation, MM = Missing Value Source: NWS Daily Summary

Daily Weather History Graph

Daily Weather History Graph

Search for Another Location

Airport:

Trip Planner

Search our weather history database for the weather conditions in past years. The results will help you decide how hot, cold, wet, or windy it might be!

Date:

Astronomy

Apr. 18, 2013 Rise Set
Actual Time 6:45 AM CDT 8:07 PM CDT
Civil Twilight 6:17 AM CDT 8:35 PM CDT
Nautical Twilight 5:44 AM CDT 9:08 PM CDT
Astronomical Twilight 5:09 AM CDT 9:44 PM CDT
Moon 12:59 PM CDT (4/18) 2:22 AM CDT (4/18)
Length of Visible Light 14h 17m
Length of Day
13h 21m
First Quarter, 52% of the Moon is Illuminated
Apr 18
First Quarter
Apr 25
Full
May 2
Last Quarter
May 9
New
May 17
First Quarter

Hourly Weather History & Observations

Time (CDT) Temp. Windchill Dew Point Humidity Pressure Visibility Wind Dir Wind Speed Gust Speed Precip Events Conditions
12:10 AM 41.0 °F 35.8 °F 41.0 °F 100% 29.79 in 10.0 mi North 8.1 mph 18.4 mph N/A   Light Drizzle
12:40 AM 39.2 °F 33.0 °F 39.2 °F 100% 29.78 in 9.0 mi NW 9.2 mph - N/A Rain Light Rain
12:58 AM 39.7 °F 33.2 °F 39.7 °F 100% 29.76 in 10.0 mi North 10.4 mph 19.6 mph 0.02 in Rain Light Rain
1:08 AM 39.2 °F 32.0 °F 39.2 °F 100% 29.76 in 10.0 mi North 11.5 mph 18.4 mph N/A   Overcast
1:13 AM 39.2 °F 32.0 °F 39.2 °F 100% 29.76 in 10.0 mi North 11.5 mph 19.6 mph N/A   Overcast
1:16 AM 39.2 °F 32.0 °F 39.2 °F 100% 29.77 in 10.0 mi North 11.5 mph 19.6 mph N/A   Light Drizzle
1:27 AM 39.2 °F 33.0 °F 39.2 °F 100% 29.77 in 10.0 mi North 9.2 mph - N/A   Overcast
1:55 AM 39.2 °F 30.5 °F 39.2 °F 100% 29.75 in 10.0 mi North 16.1 mph 18.4 mph N/A Rain Light Rain
1:58 AM 39.2 °F 30.5 °F 39.2 °F 100% 29.75 in 10.0 mi North 16.1 mph 24.2 mph 0.00 in Rain Light Rain
2:48 AM 37.4 °F 29.8 °F 37.4 °F 100% 29.73 in 10.0 mi North 11.5 mph 16.1 mph N/A Rain Light Rain
2:58 AM 37.9 °F 30.5 °F 37.9 °F 100% 29.74 in 10.0 mi North 11.5 mph 23.0 mph 0.09 in Rain Light Rain
3:18 AM 37.4 °F 28.9 °F 37.4 °F 100% 29.72 in 10.0 mi North 13.8 mph 20.7 mph N/A   Overcast
3:28 AM 37.4 °F 28.9 °F 37.4 °F 100% 29.70 in 10.0 mi North 13.8 mph 21.9 mph N/A   Light Drizzle
3:58 AM 37.4 °F 29.8 °F 37.4 °F 100% 29.73 in 10.0 mi North 11.5 mph - 0.00 in Rain Light Rain
4:53 AM 37.4 °F 30.3 °F 37.4 °F 100% 29.75 in 6.0 mi NNW 10.4 mph - N/A Rain Light Rain
4:58 AM 36.5 °F 29.7 °F 36.5 °F 100% 29.75 in 6.0 mi NNW 9.2 mph - 0.02 in Rain Light Rain
5:13 AM 35.6 °F 28.6 °F 35.6 °F 100% 29.74 in 5.0 mi NNW 9.2 mph 18.4 mph N/A Rain Light Rain
5:23 AM 35.6 °F 28.0 °F 35.6 °F 100% 29.74 in 6.0 mi NNW 10.4 mph - N/A Rain Light Rain
5:38 AM 35.6 °F 26.6 °F 35.6 °F 100% 29.74 in 5.0 mi NNW 13.8 mph 25.3 mph N/A Rain Light Rain
5:48 AM 35.6 °F 28.0 °F 35.6 °F 100% 29.76 in 5.0 mi NW 10.4 mph 19.6 mph N/A Rain Light Rain
5:58 AM 35.6 °F 27.5 °F 35.6 °F 100% 29.78 in 5.0 mi NNW 11.5 mph 23.0 mph 0.03 in Rain Light Rain
6:01 AM 35.6 °F 27.1 °F 35.6 °F 100% 29.78 in 5.0 mi NW 12.7 mph 23.0 mph N/A Rain Light Rain
6:56 AM 35.6 °F 27.1 °F 35.6 °F 100% 29.79 in 4.0 mi NW 12.7 mph 21.9 mph N/A Rain Light Rain
6:58 AM 34.7 °F 25.1 °F 34.7 °F 100% 29.81 in 4.0 mi NW 15.0 mph 21.9 mph 0.03 in Rain Light Rain
7:13 AM 33.8 °F 24.8 °F 33.8 °F 100% 29.79 in 5.0 mi NNW 12.7 mph 20.7 mph N/A Rain Light Rain
7:28 AM 33.8 °F 25.3 °F 33.8 °F 100% 29.80 in 8.0 mi NW 11.5 mph 24.2 mph N/A   Light Drizzle
7:29 AM 33.8 °F 25.3 °F 33.8 °F 100% 29.80 in 9.0 mi NW 11.5 mph 24.2 mph N/A   Overcast
7:39 AM 33.8 °F 25.3 °F 33.8 °F 100% 29.81 in 10.0 mi NNW 11.5 mph 21.9 mph N/A   Overcast
7:49 AM 33.8 °F 24.3 °F 33.8 °F 100% 29.80 in 10.0 mi NNW 13.8 mph 25.3 mph N/A   Overcast
7:58 AM 33.8 °F 23.9 °F 33.8 °F 100% 29.83 in 10.0 mi NW 15.0 mph 25.3 mph 0.01 in   Overcast
8:45 AM 32.0 °F 21.2 °F 32.0 °F 100% 29.83 in 10.0 mi NW 16.1 mph 24.2 mph N/A   Overcast
8:58 AM 33.4 °F 23.1 °F 33.3 °F 99% 29.87 in 10.0 mi NW 16.1 mph 23.0 mph 0.00 in Rain Light Rain
9:08 AM 32.0 °F 23.6 °F 32.0 °F 100% 29.85 in 10.0 mi NW 10.4 mph 26.5 mph N/A Rain Light Rain
9:30 AM 33.8 °F 22.8 °F 32.0 °F 93% 29.84 in 10.0 mi NW 18.4 mph 26.5 mph N/A   Overcast
9:34 AM 33.8 °F 24.8 °F 32.0 °F 93% 29.84 in 10.0 mi NW 12.7 mph 26.5 mph N/A Rain Light Rain
9:39 AM 33.8 °F 25.3 °F 33.8 °F 100% 29.84 in 10.0 mi NW 11.5 mph 24.2 mph N/A Rain Light Rain
9:55 AM 33.8 °F 24.3 °F 32.0 °F 93% 29.86 in 4.0 mi NW 13.8 mph 25.3 mph N/A Snow Light Snow
10:04 AM 33.8 °F 23.5 °F 33.8 °F 100% 29.85 in 7.0 mi NW 16.1 mph 25.3 mph N/A Snow Light Snow
10:06 AM 33.8 °F 23.9 °F 33.8 °F 100% 29.85 in 7.0 mi NW 15.0 mph 25.3 mph N/A Snow Light Snow
10:11 AM 33.8 °F 24.8 °F 33.8 °F 100% 29.85 in 8.0 mi WNW 12.7 mph 25.3 mph N/A Rain Light Rain
10:27 AM 35.6 °F 27.1 °F 33.8 °F 93% 29.86 in 10.0 mi NW 12.7 mph 26.5 mph N/A   Overcast
10:38 AM 35.6 °F 25.2 °F 33.8 °F 93% 29.86 in 10.0 mi NW 18.4 mph 23.0 mph N/A Rain Light Rain
10:48 AM 35.6 °F 26.6 °F 33.8 °F 93% 29.88 in 10.0 mi NW 13.8 mph 24.2 mph N/A   Overcast
10:58 AM 35.4 °F 25.6 °F 33.6 °F 93% 29.89 in 10.0 mi NW 16.1 mph 25.3 mph 0.00 in   Overcast
11:53 AM 37.4 °F 28.5 °F 32.0 °F 81% 29.88 in 10.0 mi NW 15.0 mph 26.5 mph N/A   Overcast
11:58 AM 36.5 °F 25.7 °F 31.6 °F 83% 29.90 in 10.0 mi NW 20.7 mph 28.8 mph N/A   Overcast
12:03 PM 37.4 °F 26.9 °F 32.0 °F 81% 29.88 in 10.0 mi NW 20.7 mph 28.8 mph N/A   Overcast
12:08 PM 35.6 °F 24.5 °F 32.0 °F 87% 29.88 in 10.0 mi NW 20.7 mph 31.1 mph N/A   Overcast
12:58 PM 37.6 °F 28.8 °F 31.8 °F 80% 29.91 in 10.0 mi NW 15.0 mph 23.0 mph N/A   Overcast
1:58 PM 38.1 °F 29.5 °F 30.7 °F 75% 29.92 in 10.0 mi NW 15.0 mph 25.3 mph N/A   Overcast
2:58 PM 39.4 °F 30.7 °F 30.9 °F 72% 29.93 in 10.0 mi NW 16.1 mph 33.4 mph N/A   Overcast
3:58 PM 38.8 °F 29.1 °F 29.1 °F 68% 29.95 in 10.0 mi NW 19.6 mph 29.9 mph N/A   Overcast
4:03 PM 39.2 °F 30.5 °F 28.4 °F 65% 29.93 in 10.0 mi NW 16.1 mph 29.9 mph N/A   Overcast
4:08 PM 39.2 °F 29.8 °F 28.4 °F 65% 29.93 in 10.0 mi NW 18.4 mph 25.3 mph N/A   Overcast
4:13 PM 39.2 °F 30.5 °F 28.4 °F 65% 29.93 in 10.0 mi NW 16.1 mph 26.5 mph N/A   Overcast
4:28 PM 39.2 °F 31.2 °F 28.4 °F 65% 29.93 in 10.0 mi NW 13.8 mph 23.0 mph N/A   Overcast
4:38 PM 39.2 °F 31.2 °F 28.4 °F 65% 29.93 in 10.0 mi WNW 13.8 mph 23.0 mph N/A   Overcast
4:58 PM 39.2 °F 30.2 °F 26.6 °F 61% 29.96 in 10.0 mi NW 17.3 mph 24.2 mph N/A   Overcast
5:08 PM 39.2 °F 31.6 °F 28.4 °F 65% 29.95 in 10.0 mi NW 12.7 mph 26.5 mph N/A   Overcast
5:18 PM 37.4 °F 28.5 °F 28.4 °F 70% 29.95 in 10.0 mi NW 15.0 mph 23.0 mph N/A   Overcast
5:58 PM 37.9 °F 29.2 °F 27.5 °F 66% 29.99 in 10.0 mi WNW 15.0 mph 20.7 mph N/A   Overcast
6:24 PM 37.4 °F 27.8 °F 26.6 °F 65% 29.97 in 10.0 mi WNW 17.3 mph 24.2 mph N/A Rain Light Rain
6:33 PM 37.4 °F 27.5 °F 26.6 °F 65% 29.97 in 10.0 mi WNW 18.4 mph 24.2 mph N/A   Overcast
6:58 PM 37.8 °F 28.6 °F 25.2 °F 60% 29.99 in 10.0 mi NW 16.1 mph 26.5 mph 0.00 in   Overcast
7:58 PM 37.6 °F 29.6 °F 25.5 °F 62% 30.01 in 10.0 mi WNW 12.7 mph 18.4 mph N/A   Overcast
8:58 PM 37.2 °F 28.7 °F 25.9 °F 64% 30.02 in 10.0 mi NW 13.8 mph - N/A   Overcast
9:58 PM 36.0 °F 27.5 °F 25.5 °F 66% 30.05 in 10.0 mi NW 12.7 mph 25.3 mph N/A   Scattered Clouds
10:58 PM 34.5 °F 28.6 °F 25.7 °F 70% 30.05 in 10.0 mi WNW 6.9 mph - N/A   Clear
11:58 PM 34.0 °F 27.2 °F 26.8 °F 75% 30.04 in 10.0 mi WNW 8.1 mph - N/A   Mostly Cloudy